createdAt,value
2023-08-07T00:00:10.756Z,13.50
2023-08-07T00:02:57.887Z,13.50
2023-08-07T00:05:25.275Z,13.50
2023-08-07T00:07:52.914Z,13.40
2023-08-07T00:10:20.665Z,13.40
2023-08-07T00:12:47.748Z,13.40
2023-08-07T00:15:17.634Z,13.40
2023-08-07T00:17:47.957Z,13.40
2023-08-07T00:20:15.396Z,13.40
2023-08-07T00:22:42.569Z,13.30
2023-08-07T00:25:10.031Z,13.30
2023-08-07T00:27:39.287Z,13.30
2023-08-07T00:30:07.486Z,13.30
2023-08-07T00:32:34.529Z,13.30
2023-08-07T00:35:01.922Z,13.30
2023-08-07T00:37:29.161Z,13.20
2023-08-07T00:39:56.608Z,13.20
2023-08-07T00:42:23.720Z,13.20
2023-08-07T00:44:51.060Z,13.20
2023-08-07T00:47:18.269Z,13.20
2023-08-07T00:49:45.801Z,13.20
2023-08-07T00:52:13.407Z,13.20
2023-08-07T00:54:41.130Z,13.20
2023-08-07T00:57:13.274Z,13.30
2023-08-07T00:59:41.588Z,13.20
2023-08-07T01:02:09.572Z,13.20
2023-08-07T01:04:37.072Z,13.20
2023-08-07T01:07:04.290Z,13.20
2023-08-07T01:09:31.726Z,13.20
2023-08-07T01:11:58.770Z,13.20
2023-08-07T01:14:56.579Z,13.20
2023-08-07T01:17:24.811Z,13.30
2023-08-07T01:19:53.774Z,13.20
2023-08-07T01:22:21.488Z,13.20
2023-08-07T01:24:51.573Z,13.20
2023-08-07T01:27:18.705Z,13.20
2023-08-07T01:30:11.449Z,13.20
2023-08-07T01:32:59.851Z,13.20
2023-08-07T01:35:33.840Z,13.20
2023-08-07T01:38:02.005Z,13.20
2023-08-07T01:40:30.930Z,13.10
2023-08-07T01:42:58.616Z,13.10
2023-08-07T01:45:28.011Z,13.10
2023-08-07T01:47:55.340Z,13.10
2023-08-07T01:50:24.326Z,13.20
2023-08-07T01:52:51.912Z,13.10
2023-08-07T01:55:21.131Z,13.10
2023-08-07T01:57:48.291Z,13.10
2023-08-07T02:00:15.885Z,13.20
2023-08-07T02:02:43.698Z,13.20
2023-08-07T02:05:11.171Z,13.20
2023-08-07T02:07:38.497Z,13.20
2023-08-07T02:10:06.045Z,13.20
2023-08-07T02:12:35.748Z,13.20
2023-08-07T02:15:03.740Z,13.20
2023-08-07T02:17:31.613Z,13.10
2023-08-07T02:19:59.475Z,13.10
2023-08-07T02:22:26.631Z,13.20
2023-08-07T02:24:54.063Z,13.10
2023-08-07T02:27:21.259Z,13.10
2023-08-07T02:29:48.937Z,13.10
2023-08-07T02:32:16.065Z,13.10
2023-08-07T02:34:43.974Z,13.10
2023-08-07T02:37:11.133Z,13.20
2023-08-07T02:39:38.710Z,13.20
2023-08-07T02:42:05.963Z,13.20
2023-08-07T02:44:33.753Z,13.20
2023-08-07T02:47:00.758Z,13.20
2023-08-07T02:49:28.095Z,13.20
2023-08-07T02:51:55.096Z,13.30
2023-08-07T02:54:22.505Z,13.30
2023-08-07T02:56:52.388Z,13.30
2023-08-07T02:59:19.971Z,13.30
2023-08-07T03:01:47.149Z,13.20
2023-08-07T03:04:14.607Z,13.20
2023-08-07T03:06:41.766Z,13.20
2023-08-07T03:09:09.216Z,13.20
2023-08-07T03:11:36.303Z,13.10
2023-08-07T03:14:04.390Z,13.20
2023-08-07T03:16:31.501Z,13.20
2023-08-07T03:21:26.248Z,13.20
2023-08-07T03:23:53.662Z,13.20
2023-08-07T03:26:20.771Z,13.20
2023-08-07T03:28:49.902Z,13.30
2023-08-07T03:31:17.835Z,13.20
2023-08-07T03:33:45.305Z,13.30
2023-08-07T03:36:12.486Z,13.20
2023-08-07T03:38:40.330Z,13.20
2023-08-07T03:41:07.393Z,13.20
2023-08-07T03:43:35.048Z,13.20
2023-08-07T03:46:03.420Z,13.20
2023-08-07T03:48:32.002Z,13.20
2023-08-07T03:51:06.510Z,13.20
2023-08-07T03:53:34.010Z,13.20
2023-08-07T03:56:01.265Z,13.30
2023-08-07T03:58:28.979Z,13.20
2023-08-07T04:00:56.970Z,13.20
2023-08-07T04:03:24.632Z,13.20
2023-08-07T04:05:55.624Z,13.20
2023-08-07T04:08:24.447Z,13.20
2023-08-07T04:11:07.163Z,13.20
2023-08-07T04:13:34.790Z,13.20
2023-08-07T04:16:03.571Z,13.20
2023-08-07T04:18:31.231Z,13.20
2023-08-07T04:20:58.895Z,13.20
2023-08-07T04:23:26.910Z,13.20
2023-08-07T04:25:55.163Z,13.20
2023-08-07T04:28:23.043Z,13.30
2023-08-07T04:30:52.032Z,13.20
2023-08-07T04:33:20.295Z,13.20
2023-08-07T04:35:48.029Z,13.20
2023-08-07T04:38:16.454Z,13.20
2023-08-07T04:40:50.590Z,13.30
2023-08-07T04:43:20.667Z,13.30
2023-08-07T04:45:47.797Z,13.30
2023-08-07T04:48:15.660Z,13.30
2023-08-07T04:50:43.233Z,13.30
2023-08-07T04:53:10.960Z,13.30
2023-08-07T04:55:38.024Z,13.30
2023-08-07T04:58:05.397Z,13.30
2023-08-07T05:00:33.178Z,13.30
2023-08-07T05:03:01.120Z,13.30
2023-08-07T05:05:28.953Z,13.40
2023-08-07T05:07:56.932Z,13.40
2023-08-07T05:10:23.969Z,13.50
2023-08-07T05:12:57.049Z,13.50
2023-08-07T05:15:25.294Z,13.60
2023-08-07T05:17:53.849Z,13.60
2023-08-07T05:20:21.416Z,13.70
2023-08-07T05:22:49.340Z,13.70
2023-08-07T05:25:17.674Z,13.80
2023-08-07T05:27:48.583Z,13.80
2023-08-07T05:30:16.810Z,13.80
2023-08-07T05:32:44.427Z,13.80
2023-08-07T05:35:11.724Z,14.00
2023-08-07T05:37:39.111Z,14.20
2023-08-07T05:40:07.095Z,14.30
2023-08-07T05:42:36.039Z,14.40
2023-08-07T05:45:04.951Z,14.50
2023-08-07T05:47:33.814Z,14.80
2023-08-07T05:50:00.934Z,14.90
2023-08-07T05:52:28.359Z,15.00
2023-08-07T05:54:55.544Z,15.10
2023-08-07T05:57:23.400Z,15.20
2023-08-07T05:59:50.454Z,15.30
2023-08-07T06:02:18.337Z,15.30
2023-08-07T06:04:46.390Z,15.50
2023-08-07T06:07:14.024Z,15.50
2023-08-07T06:09:41.057Z,15.50
2023-08-07T06:12:09.192Z,15.40
2023-08-07T06:14:36.570Z,15.50
2023-08-07T06:17:04.560Z,15.20
2023-08-07T06:19:33.005Z,15.20
2023-08-07T06:22:01.710Z,15.10
2023-08-07T06:24:29.743Z,15.10
2023-08-07T06:26:57.249Z,15.20
2023-08-07T06:29:24.377Z,15.60
2023-08-07T06:31:51.888Z,15.80
2023-08-07T06:34:19.042Z,15.90
2023-08-07T06:36:46.724Z,16.10
2023-08-07T06:39:13.871Z,16.10
2023-08-07T06:41:41.302Z,16.10
2023-08-07T06:44:08.483Z,15.90
2023-08-07T06:46:35.818Z,15.80
2023-08-07T06:49:03.049Z,15.90
2023-08-07T06:51:30.494Z,15.90
2023-08-07T06:53:57.677Z,16.10
2023-08-07T06:56:25.471Z,16.60
2023-08-07T06:58:52.656Z,16.60
2023-08-07T07:03:53.377Z,16.70
2023-08-07T07:06:22.095Z,16.50
2023-08-07T07:11:30.538Z,16.70
2023-08-07T07:13:57.664Z,16.90
2023-08-07T07:16:25.716Z,17.10
2023-08-07T07:18:57.384Z,17.30
2023-08-07T07:21:25.063Z,18.10
2023-08-07T07:23:52.745Z,19.50
2023-08-07T07:26:20.273Z,22.20
2023-08-07T07:28:47.800Z,22.20
2023-08-07T07:31:15.277Z,21.70
2023-08-07T07:33:42.609Z,21.30
2023-08-07T07:36:18.370Z,21.20
2023-08-07T07:38:48.412Z,21.50
2023-08-07T07:41:16.634Z,20.80
2023-08-07T07:43:44.267Z,20.00
2023-08-07T07:46:12.105Z,19.50
2023-08-07T07:48:39.372Z,20.20
2023-08-07T07:51:07.190Z,20.70
2023-08-07T07:53:34.275Z,21.50
2023-08-07T07:56:01.802Z,22.10
2023-08-07T07:58:28.978Z,22.90
2023-08-07T08:00:56.417Z,22.60
2023-08-07T08:03:25.439Z,22.90
2023-08-07T08:05:54.491Z,23.80
2023-08-07T08:08:21.674Z,23.60
2023-08-07T08:10:49.442Z,23.60
2023-08-07T08:13:17.376Z,23.70
2023-08-07T08:15:46.295Z,24.80
2023-08-07T08:18:13.691Z,24.50
2023-08-07T08:20:41.563Z,22.50
2023-08-07T08:23:08.908Z,22.00
2023-08-07T08:25:36.659Z,22.10
2023-08-07T08:28:09.848Z,23.00
2023-08-07T08:30:37.226Z,22.00
2023-08-07T08:33:06.608Z,21.10
2023-08-07T08:38:02.485Z,21.20
2023-08-07T08:40:31.335Z,20.90
2023-08-07T08:43:02.076Z,20.40
2023-08-07T08:45:34.222Z,20.90
2023-08-07T08:48:04.513Z,22.10
2023-08-07T08:50:34.379Z,23.40
2023-08-07T08:53:03.943Z,24.00
2023-08-07T08:55:37.810Z,25.00
2023-08-07T08:58:05.678Z,25.20
2023-08-07T09:00:33.393Z,24.20
2023-08-07T09:03:02.685Z,23.80
2023-08-07T09:05:30.271Z,24.50
2023-08-07T09:07:58.678Z,24.50
2023-08-07T09:10:27.079Z,25.50
2023-08-07T09:13:13.825Z,24.20
2023-08-07T09:15:42.166Z,22.60
2023-08-07T09:18:09.468Z,21.30
2023-08-07T09:20:39.599Z,20.60
2023-08-07T09:23:06.918Z,20.40
2023-08-07T09:25:35.361Z,20.00
2023-08-07T09:28:06.906Z,19.70
2023-08-07T09:30:39.192Z,19.10
2023-08-07T09:33:07.276Z,18.90
2023-08-07T09:35:35.634Z,18.60
2023-08-07T09:38:03.248Z,24.00
2023-08-07T09:40:32.292Z,24.40
2023-08-07T09:43:01.761Z,24.70
2023-08-07T09:45:31.260Z,24.50
2023-08-07T09:48:08.028Z,25.10
2023-08-07T09:50:35.747Z,26.30
2023-08-07T09:53:03.233Z,26.70
2023-08-07T09:55:30.591Z,27.70
2023-08-07T09:58:02.158Z,29.20
2023-08-07T10:00:53.506Z,28.50
2023-08-07T10:03:24.458Z,27.30
2023-08-07T10:05:52.460Z,24.80
2023-08-07T10:08:19.735Z,24.00
2023-08-07T10:10:53.162Z,22.80
2023-08-07T10:13:23.603Z,22.20
2023-08-07T10:15:56.632Z,22.00
2023-08-07T10:18:24.139Z,21.70
2023-08-07T10:20:52.148Z,20.70
2023-08-07T10:23:19.410Z,20.00
2023-08-07T10:25:50.908Z,20.00
2023-08-07T10:28:19.485Z,19.40
2023-08-07T10:30:47.236Z,19.40
2023-08-07T10:33:15.795Z,19.40
2023-08-07T10:35:50.319Z,19.70
2023-08-07T10:38:20.526Z,19.90
2023-08-07T10:41:08.763Z,20.10
2023-08-07T10:43:46.433Z,20.60
2023-08-07T10:46:23.736Z,20.80
2023-08-07T10:48:58.814Z,20.40
2023-08-07T10:51:33.776Z,20.00
2023-08-07T10:54:03.330Z,19.80
2023-08-07T10:56:38.637Z,19.80
2023-08-07T10:59:11.038Z,20.30
2023-08-07T11:01:38.995Z,20.30
2023-08-07T11:04:14.872Z,21.00
2023-08-07T11:06:43.878Z,21.40
2023-08-07T11:09:11.526Z,20.90
2023-08-07T11:11:41.808Z,20.90
2023-08-07T11:14:15.049Z,20.20
2023-08-07T11:16:43.595Z,19.70
2023-08-07T11:19:10.900Z,18.90
2023-08-07T11:21:39.016Z,18.80
2023-08-07T11:24:06.242Z,18.70
2023-08-07T11:26:34.009Z,18.80
2023-08-07T11:29:01.332Z,19.10
2023-08-07T11:31:29.287Z,19.10
2023-08-07T11:33:59.179Z,19.10
2023-08-07T11:36:26.953Z,19.00
2023-08-07T11:38:54.086Z,18.80
2023-08-07T11:41:21.657Z,18.80
2023-08-07T11:43:49.264Z,18.90
2023-08-07T11:46:17.550Z,19.20
2023-08-07T11:48:46.030Z,19.90
2023-08-07T11:51:14.145Z,20.00
2023-08-07T11:53:42.978Z,20.40
2023-08-07T11:56:12.359Z,20.90
2023-08-07T11:58:42.056Z,21.50
2023-08-07T12:01:20.245Z,21.80
2023-08-07T12:03:54.556Z,22.00
2023-08-07T12:06:22.278Z,21.90
2023-08-07T12:08:54.237Z,21.70
2023-08-07T12:11:22.298Z,21.20
2023-08-07T12:13:49.942Z,20.60
2023-08-07T12:16:18.497Z,19.90
2023-08-07T12:18:47.609Z,19.00
2023-08-07T12:21:20.687Z,18.90
2023-08-07T12:23:49.150Z,18.60
2023-08-07T12:26:17.676Z,18.40
2023-08-07T12:28:45.155Z,18.30
2023-08-07T12:31:12.910Z,18.20
2023-08-07T12:33:40.081Z,18.20
2023-08-07T12:36:20.227Z,18.20
2023-08-07T12:38:48.120Z,18.20
2023-08-07T12:43:46.256Z,18.70
2023-08-07T12:48:43.547Z,20.40
2023-08-07T12:51:11.373Z,20.80
2023-08-07T12:53:38.626Z,20.80
2023-08-07T12:56:13.912Z,20.60
2023-08-07T12:58:42.488Z,21.00
2023-08-07T13:01:11.372Z,21.40
2023-08-07T13:03:38.614Z,21.60
2023-08-07T13:06:08.631Z,21.60
2023-08-07T13:08:36.175Z,21.60
2023-08-07T13:11:03.970Z,21.30
2023-08-07T13:13:32.028Z,21.20
2023-08-07T13:18:27.432Z,21.50
2023-08-07T13:20:55.336Z,21.20
2023-08-07T13:23:22.567Z,20.80
2023-08-07T13:25:49.934Z,20.70
2023-08-07T13:28:17.955Z,21.00
2023-08-07T13:30:45.507Z,21.00
2023-08-07T13:33:15.532Z,21.10
2023-08-07T13:35:42.890Z,21.10
2023-08-07T13:38:11.762Z,20.80
2023-08-07T13:40:39.584Z,20.50
2023-08-07T13:43:10.348Z,20.30
2023-08-07T13:45:38.807Z,20.10
2023-08-07T13:48:07.949Z,20.10
2023-08-07T13:50:36.095Z,20.30
2023-08-07T13:53:13.411Z,21.50
2023-08-07T13:55:42.322Z,21.50
2023-08-07T13:58:10.796Z,22.10
2023-08-07T14:00:39.790Z,21.90
2023-08-07T14:03:06.984Z,21.70
2023-08-07T14:05:34.439Z,21.70
2023-08-07T14:08:01.756Z,21.80
2023-08-07T14:10:29.080Z,22.10
2023-08-07T14:12:56.139Z,21.80
2023-08-07T14:15:23.576Z,21.40
2023-08-07T14:17:50.686Z,20.60
2023-08-07T14:20:18.118Z,20.50
2023-08-07T14:22:45.288Z,20.50
2023-08-07T14:27:40.132Z,21.20
2023-08-07T14:30:08.193Z,21.20
2023-08-07T14:32:35.297Z,21.10
2023-08-07T14:35:03.118Z,20.90
2023-08-07T14:37:30.314Z,20.60
2023-08-07T14:39:58.041Z,20.20
2023-08-07T14:42:25.831Z,20.10
2023-08-07T14:44:53.532Z,19.80
2023-08-07T14:47:20.856Z,19.50
2023-08-07T14:49:48.679Z,19.00
2023-08-07T14:52:15.755Z,18.90
2023-08-07T14:54:43.396Z,18.70
2023-08-07T14:57:11.140Z,18.40
2023-08-07T14:59:38.784Z,18.10
2023-08-07T15:02:07.432Z,18.00
2023-08-07T15:04:34.965Z,18.10
2023-08-07T15:07:02.383Z,18.30
2023-08-07T15:09:30.450Z,18.80
2023-08-07T15:11:57.843Z,18.80
2023-08-07T15:14:25.682Z,19.40
2023-08-07T15:16:52.773Z,20.00
2023-08-07T15:19:20.495Z,20.50
2023-08-07T15:21:47.631Z,20.60
2023-08-07T15:24:15.115Z,20.60
2023-08-07T15:26:42.369Z,20.40
2023-08-07T15:29:10.056Z,20.10
2023-08-07T15:31:37.145Z,20.10
2023-08-07T15:34:04.743Z,20.00
2023-08-07T15:36:31.867Z,20.00
2023-08-07T15:38:59.312Z,20.10
2023-08-07T15:41:26.434Z,20.00
2023-08-07T15:43:54.449Z,19.70
2023-08-07T15:46:21.615Z,19.70
2023-08-07T15:48:49.249Z,19.50
2023-08-07T15:51:16.335Z,19.30
2023-08-07T15:53:43.983Z,19.20
2023-08-07T15:56:11.000Z,18.90
2023-08-07T15:58:38.678Z,18.90
2023-08-07T16:01:05.745Z,18.70
2023-08-07T16:03:37.156Z,18.60
2023-08-07T16:06:04.352Z,18.60
2023-08-07T16:08:31.928Z,18.70
2023-08-07T16:10:59.276Z,18.60
2023-08-07T16:13:26.997Z,18.60
2023-08-07T16:15:54.174Z,18.60
2023-08-07T16:18:21.837Z,18.60
2023-08-07T16:20:49.213Z,18.60
2023-08-07T16:25:43.967Z,18.50
2023-08-07T16:28:11.401Z,18.50
2023-08-07T16:30:38.494Z,18.40
2023-08-07T16:33:06.480Z,18.40
2023-08-07T16:35:33.597Z,18.40
2023-08-07T16:38:01.480Z,18.30
2023-08-07T16:40:28.897Z,18.20
2023-08-07T16:42:56.562Z,18.20
2023-08-07T16:45:24.820Z,18.20
2023-08-07T16:47:52.539Z,18.10
2023-08-07T16:50:19.722Z,18.00
2023-08-07T16:52:47.421Z,18.10
2023-08-07T16:55:14.683Z,18.10
2023-08-07T16:57:42.010Z,18.10
2023-08-07T17:00:11.557Z,18.10
2023-08-07T17:02:39.016Z,18.00
2023-08-07T17:05:06.893Z,18.00
2023-08-07T17:07:35.576Z,18.00
2023-08-07T17:10:02.694Z,18.00
2023-08-07T17:12:30.029Z,18.00
2023-08-07T17:14:57.080Z,18.00
2023-08-07T17:17:24.467Z,17.90
2023-08-07T17:22:20.029Z,17.80
2023-08-07T17:24:47.084Z,17.70
2023-08-07T17:27:14.700Z,17.70
2023-08-07T17:29:41.757Z,17.70
2023-08-07T17:32:09.260Z,17.60
2023-08-07T17:34:36.584Z,17.60
2023-08-07T17:37:04.301Z,17.50
2023-08-07T17:39:31.385Z,17.50
2023-08-07T17:41:58.753Z,17.40
2023-08-07T17:44:25.873Z,17.30
2023-08-07T17:46:53.828Z,17.30
2023-08-07T17:49:21.001Z,17.30
2023-08-07T17:51:48.432Z,17.30
2023-08-07T17:54:15.556Z,17.20
2023-08-07T17:56:42.898Z,17.20
2023-08-07T17:59:10.027Z,17.10
2023-08-07T18:01:37.673Z,17.10
2023-08-07T18:04:05.397Z,17.10
2023-08-07T18:06:33.012Z,17.10
2023-08-07T18:11:29.015Z,17.00
2023-08-07T18:13:56.124Z,17.00
2023-08-07T18:16:26.441Z,16.90
2023-08-07T18:18:54.420Z,16.90
2023-08-07T18:21:21.921Z,16.90
2023-08-07T18:23:49.989Z,16.80
2023-08-07T18:26:18.929Z,16.80
2023-08-07T18:28:46.185Z,16.80
2023-08-07T18:31:13.949Z,16.70
2023-08-07T18:33:41.224Z,16.70
2023-08-07T18:36:08.631Z,16.50
2023-08-07T18:38:35.847Z,16.50
2023-08-07T18:41:03.624Z,16.30
2023-08-07T18:43:30.973Z,16.20
2023-08-07T18:45:58.600Z,16.10
2023-08-07T18:48:25.810Z,15.80
2023-08-07T18:50:53.732Z,15.50
2023-08-07T18:53:20.877Z,15.40
2023-08-07T18:55:48.216Z,15.20
2023-08-07T18:58:15.351Z,15.00
2023-08-07T19:00:43.314Z,14.80
2023-08-07T19:03:10.805Z,14.70
2023-08-07T19:05:38.432Z,14.70
2023-08-07T19:08:05.995Z,14.60
2023-08-07T19:10:33.400Z,14.60
2023-08-07T19:13:00.518Z,14.50
2023-08-07T19:15:27.946Z,14.50
2023-08-07T19:17:55.135Z,14.50
2023-08-07T19:20:23.132Z,14.40
2023-08-07T19:22:50.314Z,14.40
2023-08-07T19:25:18.175Z,14.40
2023-08-07T19:27:45.232Z,14.40
2023-08-07T19:30:12.691Z,14.30
2023-08-07T19:32:39.911Z,14.30
2023-08-07T19:35:07.918Z,14.30
2023-08-07T19:37:35.099Z,14.30
2023-08-07T19:40:08.308Z,14.30
2023-08-07T19:42:35.879Z,14.40
2023-08-07T19:45:03.995Z,14.30
2023-08-07T19:47:36.720Z,14.30
2023-08-07T19:50:04.743Z,14.30
2023-08-07T19:52:31.870Z,14.20
2023-08-07T19:54:59.722Z,14.20
2023-08-07T19:57:26.795Z,14.30
2023-08-07T19:59:54.415Z,14.30
2023-08-07T20:02:21.530Z,14.30
2023-08-07T20:04:49.309Z,14.30
2023-08-07T20:07:16.573Z,14.30
2023-08-07T20:09:44.294Z,14.30
2023-08-07T20:12:11.634Z,14.40
2023-08-07T20:14:39.359Z,14.30
2023-08-07T20:17:07.286Z,14.40
2023-08-07T20:19:35.155Z,14.30
2023-08-07T20:22:02.309Z,14.40
2023-08-07T20:24:29.822Z,14.40
2023-08-07T20:26:57.631Z,14.40
2023-08-07T20:29:25.583Z,14.40
2023-08-07T20:31:53.007Z,14.40
2023-08-07T20:34:20.720Z,14.30
2023-08-07T20:36:48.488Z,14.30
2023-08-07T20:39:15.967Z,14.20
2023-08-07T20:41:44.382Z,14.20
2023-08-07T20:44:11.853Z,14.20
2023-08-07T20:46:38.960Z,14.10
2023-08-07T20:49:06.333Z,14.10
2023-08-07T20:51:33.699Z,14.00
2023-08-07T20:54:01.092Z,14.00
2023-08-07T20:56:28.221Z,14.00
2023-08-07T20:58:55.663Z,14.00
2023-08-07T21:01:22.799Z,14.00
2023-08-07T21:03:50.485Z,13.90
2023-08-07T21:06:17.576Z,13.90
2023-08-07T21:08:44.996Z,13.70
2023-08-07T21:11:12.046Z,13.90
2023-08-07T21:13:39.819Z,13.80
2023-08-07T21:16:07.138Z,13.90
2023-08-07T21:18:34.581Z,13.90
2023-08-07T21:21:01.685Z,13.90
2023-08-07T21:23:29.254Z,13.80
2023-08-07T21:25:56.389Z,13.80
2023-08-07T21:28:23.831Z,13.80
2023-08-07T21:30:50.955Z,13.80
2023-08-07T21:33:18.660Z,13.80
2023-08-07T21:35:45.823Z,13.80
2023-08-07T21:38:14.358Z,13.80
2023-08-07T21:40:41.464Z,13.70
2023-08-07T21:43:09.199Z,13.70
2023-08-07T21:45:36.356Z,13.70
2023-08-07T21:48:04.835Z,13.70
2023-08-07T21:50:32.267Z,13.70
2023-08-07T21:52:59.633Z,13.60
2023-08-07T21:55:26.697Z,13.50
2023-08-07T21:57:54.406Z,13.50
2023-08-07T22:00:21.651Z,13.40
2023-08-07T22:02:49.362Z,13.40
2023-08-07T22:05:16.762Z,13.30
2023-08-07T22:07:44.525Z,13.30
2023-08-07T22:10:11.896Z,13.30
2023-08-07T22:12:39.403Z,13.30
2023-08-07T22:15:09.418Z,13.20
2023-08-07T22:17:37.356Z,13.20
2023-08-07T22:20:06.307Z,13.10
2023-08-07T22:22:34.103Z,13.10
2023-08-07T22:25:01.320Z,13.10
2023-08-07T22:27:28.714Z,13.00
2023-08-07T22:29:56.222Z,13.00
2023-08-07T22:32:23.573Z,13.00
2023-08-07T22:34:50.803Z,12.90
2023-08-07T22:37:18.964Z,12.90
2023-08-07T22:39:46.495Z,12.90
2023-08-07T22:42:14.008Z,12.90
2023-08-07T22:44:41.441Z,12.90
2023-08-07T22:47:08.758Z,12.90
2023-08-07T22:49:35.833Z,12.80
2023-08-07T22:52:03.339Z,12.80
2023-08-07T22:54:30.389Z,12.80
2023-08-07T22:56:57.734Z,12.80
2023-08-07T22:59:24.881Z,12.70
2023-08-07T23:01:52.642Z,12.70
2023-08-07T23:04:19.801Z,12.70
2023-08-07T23:06:47.569Z,12.70
2023-08-07T23:09:14.667Z,12.70
2023-08-07T23:11:42.103Z,12.70
2023-08-07T23:14:09.643Z,12.70
2023-08-07T23:16:37.233Z,12.70
2023-08-07T23:19:04.280Z,12.70
2023-08-07T23:21:31.611Z,12.60
2023-08-07T23:23:58.652Z,12.70
2023-08-07T23:26:26.030Z,12.70
2023-08-07T23:28:53.124Z,12.70
2023-08-07T23:31:20.524Z,12.60
2023-08-07T23:33:47.642Z,12.70
2023-08-07T23:36:15.117Z,12.70
2023-08-07T23:38:42.197Z,12.70
2023-08-07T23:41:09.676Z,12.70
2023-08-07T23:43:36.836Z,12.70
2023-08-07T23:46:04.277Z,12.70
2023-08-07T23:48:31.475Z,12.60
2023-08-07T23:50:58.773Z,12.60
2023-08-07T23:53:25.798Z,12.60
2023-08-07T23:55:53.382Z,12.60
2023-08-07T23:58:21.853Z,12.50
